sensor_id;sensor_type;location;lat;lon;timestamp;temperature;humidity
30534;DHT22;17318;52.390;9.754;2022-07-18T00:00:14;17.90;81.50
30534;DHT22;17318;52.390;9.754;2022-07-18T00:02:39;17.90;81.60
30534;DHT22;17318;52.390;9.754;2022-07-18T00:05:06;17.90;81.90
30534;DHT22;17318;52.390;9.754;2022-07-18T00:07:32;17.90;82.40
30534;DHT22;17318;52.390;9.754;2022-07-18T00:09:58;17.80;82.60
30534;DHT22;17318;52.390;9.754;2022-07-18T00:12:24;17.90;82.20
30534;DHT22;17318;52.390;9.754;2022-07-18T00:14:50;17.90;82.00
30534;DHT22;17318;52.390;9.754;2022-07-18T00:17:15;17.90;82.10
30534;DHT22;17318;52.390;9.754;2022-07-18T00:19:41;17.80;82.90
30534;DHT22;17318;52.390;9.754;2022-07-18T00:22:07;17.70;83.20
30534;DHT22;17318;52.390;9.754;2022-07-18T00:24:33;17.60;84.00
30534;DHT22;17318;52.390;9.754;2022-07-18T00:26:59;17.60;84.10
30534;DHT22;17318;52.390;9.754;2022-07-18T00:29:25;17.60;84.60
30534;DHT22;17318;52.390;9.754;2022-07-18T00:31:51;17.60;84.80
30534;DHT22;17318;52.390;9.754;2022-07-18T00:34:17;17.60;85.20
30534;DHT22;17318;52.390;9.754;2022-07-18T00:36:43;17.50;85.30
30534;DHT22;17318;52.390;9.754;2022-07-18T00:39:08;17.50;85.50
30534;DHT22;17318;52.390;9.754;2022-07-18T00:41:34;17.50;86.00
30534;DHT22;17318;52.390;9.754;2022-07-18T00:44:00;17.40;86.00
30534;DHT22;17318;52.390;9.754;2022-07-18T00:46:27;17.40;85.80
30534;DHT22;17318;52.390;9.754;2022-07-18T00:48:53;17.40;85.90
30534;DHT22;17318;52.390;9.754;2022-07-18T00:51:19;17.40;86.70
30534;DHT22;17318;52.390;9.754;2022-07-18T00:53:47;17.40;86.00
30534;DHT22;17318;52.390;9.754;2022-07-18T00:56:17;17.40;86.90
30534;DHT22;17318;52.390;9.754;2022-07-18T00:58:44;17.30;87.40
30534;DHT22;17318;52.390;9.754;2022-07-18T01:01:12;17.30;87.40
30534;DHT22;17318;52.390;9.754;2022-07-18T01:03:56;17.20;87.90
30534;DHT22;17318;52.390;9.754;2022-07-18T01:06:22;17.20;88.00
30534;DHT22;17318;52.390;9.754;2022-07-18T01:08:48;17.10;88.00
30534;DHT22;17318;52.390;9.754;2022-07-18T01:11:14;17.00;88.50
30534;DHT22;17318;52.390;9.754;2022-07-18T01:13:40;17.00;88.70
30534;DHT22;17318;52.390;9.754;2022-07-18T01:16:15;17.00;88.60
30534;DHT22;17318;52.390;9.754;2022-07-18T01:18:48;17.00;88.70
30534;DHT22;17318;52.390;9.754;2022-07-18T01:21:14;16.90;89.20
30534;DHT22;17318;52.390;9.754;2022-07-18T01:23:40;16.90;89.50
30534;DHT22;17318;52.390;9.754;2022-07-18T01:26:15;16.80;89.60
30534;DHT22;17318;52.390;9.754;2022-07-18T01:28:42;16.80;89.70
30534;DHT22;17318;52.390;9.754;2022-07-18T01:31:11;16.80;90.00
30534;DHT22;17318;52.390;9.754;2022-07-18T01:33:37;16.70;89.70
30534;DHT22;17318;52.390;9.754;2022-07-18T01:36:13;16.70;90.20
30534;DHT22;17318;52.390;9.754;2022-07-18T01:38:39;16.70;90.30
30534;DHT22;17318;52.390;9.754;2022-07-18T01:41:11;16.60;90.30
30534;DHT22;17318;52.390;9.754;2022-07-18T01:43:40;16.70;90.40
30534;DHT22;17318;52.390;9.754;2022-07-18T01:46:12;16.70;90.50
30534;DHT22;17318;52.390;9.754;2022-07-18T01:48:39;16.60;90.40
30534;DHT22;17318;52.390;9.754;2022-07-18T01:51:11;16.60;90.40
30534;DHT22;17318;52.390;9.754;2022-07-18T01:53:38;16.60;90.60
30534;DHT22;17318;52.390;9.754;2022-07-18T01:56:13;16.50;90.90
30534;DHT22;17318;52.390;9.754;2022-07-18T01:58:38;16.50;90.90
30534;DHT22;17318;52.390;9.754;2022-07-18T02:01:13;16.50;91.30
30534;DHT22;17318;52.390;9.754;2022-07-18T02:03:39;16.50;91.00
30534;DHT22;17318;52.390;9.754;2022-07-18T02:06:10;16.40;91.00
30534;DHT22;17318;52.390;9.754;2022-07-18T02:08:36;16.40;91.20
30534;DHT22;17318;52.390;9.754;2022-07-18T02:11:02;16.40;91.30
30534;DHT22;17318;52.390;9.754;2022-07-18T02:13:28;16.40;91.60
30534;DHT22;17318;52.390;9.754;2022-07-18T02:15:53;16.40;91.60
30534;DHT22;17318;52.390;9.754;2022-07-18T02:18:21;16.40;91.70
30534;DHT22;17318;52.390;9.754;2022-07-18T02:20:46;16.40;91.60
30534;DHT22;17318;52.390;9.754;2022-07-18T02:23:12;16.40;91.50
30534;DHT22;17318;52.390;9.754;2022-07-18T02:25:39;16.40;91.60
30534;DHT22;17318;52.390;9.754;2022-07-18T02:28:05;16.30;91.70
30534;DHT22;17318;52.390;9.754;2022-07-18T02:30:30;16.30;92.00
30534;DHT22;17318;52.390;9.754;2022-07-18T02:32:56;16.30;91.80
30534;DHT22;17318;52.390;9.754;2022-07-18T02:35:22;16.30;92.00
30534;DHT22;17318;52.390;9.754;2022-07-18T02:37:48;16.40;92.20
30534;DHT22;17318;52.390;9.754;2022-07-18T02:40:13;16.30;92.30
30534;DHT22;17318;52.390;9.754;2022-07-18T02:42:39;16.30;92.40
30534;DHT22;17318;52.390;9.754;2022-07-18T02:45:06;16.40;92.50
30534;DHT22;17318;52.390;9.754;2022-07-18T02:47:32;16.30;92.40
30534;DHT22;17318;52.390;9.754;2022-07-18T02:49:58;16.30;92.50
30534;DHT22;17318;52.390;9.754;2022-07-18T02:52:23;16.30;92.50
30534;DHT22;17318;52.390;9.754;2022-07-18T02:54:49;16.30;92.50
30534;DHT22;17318;52.390;9.754;2022-07-18T02:57:15;16.30;92.40
30534;DHT22;17318;52.390;9.754;2022-07-18T02:59:41;16.40;92.60
30534;DHT22;17318;52.390;9.754;2022-07-18T03:02:07;16.40;92.50
30534;DHT22;17318;52.390;9.754;2022-07-18T03:04:33;16.40;92.60
30534;DHT22;17318;52.390;9.754;2022-07-18T03:06:58;16.40;92.30
30534;DHT22;17318;52.390;9.754;2022-07-18T03:09:24;16.40;92.30
30534;DHT22;17318;52.390;9.754;2022-07-18T03:11:53;16.40;92.30
30534;DHT22;17318;52.390;9.754;2022-07-18T03:14:20;16.40;92.50
30534;DHT22;17318;52.390;9.754;2022-07-18T03:16:46;16.40;92.70
30534;DHT22;17318;52.390;9.754;2022-07-18T03:19:12;16.30;92.90
30534;DHT22;17318;52.390;9.754;2022-07-18T03:21:38;16.30;92.80
30534;DHT22;17318;52.390;9.754;2022-07-18T03:24:03;16.40;92.60
30534;DHT22;17318;52.390;9.754;2022-07-18T03:26:29;16.30;92.80
30534;DHT22;17318;52.390;9.754;2022-07-18T03:28:55;16.20;92.90
30534;DHT22;17318;52.390;9.754;2022-07-18T03:31:21;16.20;92.90
30534;DHT22;17318;52.390;9.754;2022-07-18T03:33:47;16.20;92.80
30534;DHT22;17318;52.390;9.754;2022-07-18T03:36:15;16.20;93.20
30534;DHT22;17318;52.390;9.754;2022-07-18T03:38:41;16.20;93.20
30534;DHT22;17318;52.390;9.754;2022-07-18T03:41:13;16.20;93.10
30534;DHT22;17318;52.390;9.754;2022-07-18T03:43:39;16.20;93.20
30534;DHT22;17318;52.390;9.754;2022-07-18T03:46:14;16.20;93.00
30534;DHT22;17318;52.390;9.754;2022-07-18T03:48:40;16.20;93.30
30534;DHT22;17318;52.390;9.754;2022-07-18T03:51:12;16.10;93.40
30534;DHT22;17318;52.390;9.754;2022-07-18T03:53:37;16.10;93.50
30534;DHT22;17318;52.390;9.754;2022-07-18T03:56:24;16.00;93.90
30534;DHT22;17318;52.390;9.754;2022-07-18T03:58:49;16.00;93.60
30534;DHT22;17318;52.390;9.754;2022-07-18T04:01:15;16.00;93.70
30534;DHT22;17318;52.390;9.754;2022-07-18T04:03:41;16.00;93.70
30534;DHT22;17318;52.390;9.754;2022-07-18T04:06:15;16.00;93.70
30534;DHT22;17318;52.390;9.754;2022-07-18T04:08:41;16.00;93.50
30534;DHT22;17318;52.390;9.754;2022-07-18T04:11:13;16.00;93.90
30534;DHT22;17318;52.390;9.754;2022-07-18T04:13:38;16.10;93.70
30534;DHT22;17318;52.390;9.754;2022-07-18T04:16:23;16.10;93.50
30534;DHT22;17318;52.390;9.754;2022-07-18T04:18:49;16.20;93.40
30534;DHT22;17318;52.390;9.754;2022-07-18T04:21:15;16.10;93.10
30534;DHT22;17318;52.390;9.754;2022-07-18T04:23:42;16.20;93.60
30534;DHT22;17318;52.390;9.754;2022-07-18T04:26:17;16.20;93.20
30534;DHT22;17318;52.390;9.754;2022-07-18T04:28:43;16.20;93.20
30534;DHT22;17318;52.390;9.754;2022-07-18T04:31:15;16.20;93.40
30534;DHT22;17318;52.390;9.754;2022-07-18T04:33:41;16.20;93.40
30534;DHT22;17318;52.390;9.754;2022-07-18T04:36:15;16.20;93.60
30534;DHT22;17318;52.390;9.754;2022-07-18T04:38:41;16.20;93.20
30534;DHT22;17318;52.390;9.754;2022-07-18T04:41:10;16.30;93.20
30534;DHT22;17318;52.390;9.754;2022-07-18T04:43:36;16.30;92.80
30534;DHT22;17318;52.390;9.754;2022-07-18T04:46:02;16.30;92.70
30534;DHT22;17318;52.390;9.754;2022-07-18T04:48:28;16.40;92.80
30534;DHT22;17318;52.390;9.754;2022-07-18T04:50:53;16.40;92.70
30534;DHT22;17318;52.390;9.754;2022-07-18T04:53:19;16.40;92.50
30534;DHT22;17318;52.390;9.754;2022-07-18T04:55:45;16.50;92.30
30534;DHT22;17318;52.390;9.754;2022-07-18T04:58:11;16.50;92.40
30534;DHT22;17318;52.390;9.754;2022-07-18T05:00:36;16.60;92.50
30534;DHT22;17318;52.390;9.754;2022-07-18T05:03:02;16.60;92.40
30534;DHT22;17318;52.390;9.754;2022-07-18T05:05:28;16.70;92.20
30534;DHT22;17318;52.390;9.754;2022-07-18T05:07:54;16.70;91.90
30534;DHT22;17318;52.390;9.754;2022-07-18T05:10:22;16.80;91.70
30534;DHT22;17318;52.390;9.754;2022-07-18T05:12:51;16.90;91.80
30534;DHT22;17318;52.390;9.754;2022-07-18T05:15:17;16.90;91.40
30534;DHT22;17318;52.390;9.754;2022-07-18T05:17:44;17.00;91.60
30534;DHT22;17318;52.390;9.754;2022-07-18T05:20:12;17.00;91.40
30534;DHT22;17318;52.390;9.754;2022-07-18T05:22:39;17.10;91.40
30534;DHT22;17318;52.390;9.754;2022-07-18T05:25:06;17.20;91.40
30534;DHT22;17318;52.390;9.754;2022-07-18T05:27:33;17.20;91.30
30534;DHT22;17318;52.390;9.754;2022-07-18T05:29:58;17.30;91.20
30534;DHT22;17318;52.390;9.754;2022-07-18T05:32:25;17.40;91.40
30534;DHT22;17318;52.390;9.754;2022-07-18T05:34:51;17.40;91.10
30534;DHT22;17318;52.390;9.754;2022-07-18T05:37:17;17.50;91.00
30534;DHT22;17318;52.390;9.754;2022-07-18T05:39:43;17.50;90.50
30534;DHT22;17318;52.390;9.754;2022-07-18T05:42:08;17.60;90.80
30534;DHT22;17318;52.390;9.754;2022-07-18T05:44:35;17.70;91.10
30534;DHT22;17318;52.390;9.754;2022-07-18T05:47:01;17.80;90.70
30534;DHT22;17318;52.390;9.754;2022-07-18T05:49:27;17.90;90.20
30534;DHT22;17318;52.390;9.754;2022-07-18T05:51:52;18.00;89.80
30534;DHT22;17318;52.390;9.754;2022-07-18T05:54:18;18.00;89.60
30534;DHT22;17318;52.390;9.754;2022-07-18T05:56:49;18.10;88.90
30534;DHT22;17318;52.390;9.754;2022-07-18T05:59:15;18.10;89.10
30534;DHT22;17318;52.390;9.754;2022-07-18T06:01:42;18.20;89.10
30534;DHT22;17318;52.390;9.754;2022-07-18T06:04:07;18.20;89.00
30534;DHT22;17318;52.390;9.754;2022-07-18T06:06:33;18.30;89.80
30534;DHT22;17318;52.390;9.754;2022-07-18T06:08:59;18.40;89.80
30534;DHT22;17318;52.390;9.754;2022-07-18T06:11:24;18.50;90.30
30534;DHT22;17318;52.390;9.754;2022-07-18T06:13:50;18.60;90.20
30534;DHT22;17318;52.390;9.754;2022-07-18T06:16:15;18.70;90.30
30534;DHT22;17318;52.390;9.754;2022-07-18T06:18:41;18.80;89.50
30534;DHT22;17318;52.390;9.754;2022-07-18T06:21:13;18.90;88.60
30534;DHT22;17318;52.390;9.754;2022-07-18T06:23:39;19.00;88.00
30534;DHT22;17318;52.390;9.754;2022-07-18T06:26:14;19.10;87.90
30534;DHT22;17318;52.390;9.754;2022-07-18T06:28:40;19.20;87.40
30534;DHT22;17318;52.390;9.754;2022-07-18T06:31:11;19.30;87.30
30534;DHT22;17318;52.390;9.754;2022-07-18T06:33:40;19.40;86.60
30534;DHT22;17318;52.390;9.754;2022-07-18T06:36:12;19.50;86.60
30534;DHT22;17318;52.390;9.754;2022-07-18T06:38:39;19.60;85.90
30534;DHT22;17318;52.390;9.754;2022-07-18T06:41:12;19.60;85.20
30534;DHT22;17318;52.390;9.754;2022-07-18T06:43:38;19.70;85.80
30534;DHT22;17318;52.390;9.754;2022-07-18T06:46:04;19.80;84.80
30534;DHT22;17318;52.390;9.754;2022-07-18T06:48:30;19.90;84.20
30534;DHT22;17318;52.390;9.754;2022-07-18T06:50:59;19.90;83.60
30534;DHT22;17318;52.390;9.754;2022-07-18T06:53:26;20.00;83.80
30534;DHT22;17318;52.390;9.754;2022-07-18T06:55:52;20.10;83.00
30534;DHT22;17318;52.390;9.754;2022-07-18T06:58:18;20.20;83.20
30534;DHT22;17318;52.390;9.754;2022-07-18T07:00:43;20.30;82.60
30534;DHT22;17318;52.390;9.754;2022-07-18T07:03:09;20.40;82.50
30534;DHT22;17318;52.390;9.754;2022-07-18T07:05:34;20.50;82.40
30534;DHT22;17318;52.390;9.754;2022-07-18T07:08:00;20.60;82.00
30534;DHT22;17318;52.390;9.754;2022-07-18T07:10:26;20.70;81.10
30534;DHT22;17318;52.390;9.754;2022-07-18T07:12:51;20.80;81.30
30534;DHT22;17318;52.390;9.754;2022-07-18T07:15:19;20.90;79.70
30534;DHT22;17318;52.390;9.754;2022-07-18T07:17:45;20.90;79.70
30534;DHT22;17318;52.390;9.754;2022-07-18T07:20:12;21.00;79.70
30534;DHT22;17318;52.390;9.754;2022-07-18T07:22:50;21.10;79.20
30534;DHT22;17318;52.390;9.754;2022-07-18T07:25:17;21.20;78.50
30534;DHT22;17318;52.390;9.754;2022-07-18T07:27:44;21.30;78.20
30534;DHT22;17318;52.390;9.754;2022-07-18T07:30:10;21.30;76.30
30534;DHT22;17318;52.390;9.754;2022-07-18T07:32:38;21.40;77.00
30534;DHT22;17318;52.390;9.754;2022-07-18T07:35:04;21.50;76.60
30534;DHT22;17318;52.390;9.754;2022-07-18T07:37:33;21.60;76.70
30534;DHT22;17318;52.390;9.754;2022-07-18T07:39:59;21.60;75.70
30534;DHT22;17318;52.390;9.754;2022-07-18T07:42:25;21.70;75.10
30534;DHT22;17318;52.390;9.754;2022-07-18T07:44:51;21.70;74.90
30534;DHT22;17318;52.390;9.754;2022-07-18T07:47:16;21.80;74.40
30534;DHT22;17318;52.390;9.754;2022-07-18T07:49:42;21.80;73.30
30534;DHT22;17318;52.390;9.754;2022-07-18T07:52:08;21.90;74.20
30534;DHT22;17318;52.390;9.754;2022-07-18T07:54:34;22.00;73.20
30534;DHT22;17318;52.390;9.754;2022-07-18T07:57:00;22.10;74.00
30534;DHT22;17318;52.390;9.754;2022-07-18T07:59:25;22.20;74.10
30534;DHT22;17318;52.390;9.754;2022-07-18T08:01:51;22.30;70.80
30534;DHT22;17318;52.390;9.754;2022-07-18T08:04:17;22.50;69.60
30534;DHT22;17318;52.390;9.754;2022-07-18T08:06:43;22.70;68.70
30534;DHT22;17318;52.390;9.754;2022-07-18T08:09:08;22.90;70.10
30534;DHT22;17318;52.390;9.754;2022-07-18T08:11:34;23.10;69.20
30534;DHT22;17318;52.390;9.754;2022-07-18T08:14:00;23.20;68.40
30534;DHT22;17318;52.390;9.754;2022-07-18T08:16:26;23.40;66.20
30534;DHT22;17318;52.390;9.754;2022-07-18T08:18:51;23.60;66.30
30534;DHT22;17318;52.390;9.754;2022-07-18T08:21:17;23.80;66.10
30534;DHT22;17318;52.390;9.754;2022-07-18T08:23:42;24.10;65.10
30534;DHT22;17318;52.390;9.754;2022-07-18T08:26:19;24.40;64.40
30534;DHT22;17318;52.390;9.754;2022-07-18T08:28:45;24.90;63.50
30534;DHT22;17318;52.390;9.754;2022-07-18T08:31:14;25.30;62.40
30534;DHT22;17318;52.390;9.754;2022-07-18T08:33:40;25.90;61.70
30534;DHT22;17318;52.390;9.754;2022-07-18T08:36:15;26.10;59.50
30534;DHT22;17318;52.390;9.754;2022-07-18T08:38:40;26.70;60.00
30534;DHT22;17318;52.390;9.754;2022-07-18T08:41:23;27.60;57.90
30534;DHT22;17318;52.390;9.754;2022-07-18T08:43:49;28.80;56.80
30534;DHT22;17318;52.390;9.754;2022-07-18T08:46:20;29.80;54.20
30534;DHT22;17318;52.390;9.754;2022-07-18T08:48:49;30.40;53.10
30534;DHT22;17318;52.390;9.754;2022-07-18T08:51:17;31.20;52.20
30534;DHT22;17318;52.390;9.754;2022-07-18T08:53:46;31.80;50.10
30534;DHT22;17318;52.390;9.754;2022-07-18T08:56:15;32.40;48.90
30534;DHT22;17318;52.390;9.754;2022-07-18T08:58:40;33.20;49.00
30534;DHT22;17318;52.390;9.754;2022-07-18T09:01:12;33.00;47.30
30534;DHT22;17318;52.390;9.754;2022-07-18T09:03:38;33.80;46.50
30534;DHT22;17318;52.390;9.754;2022-07-18T09:06:12;33.80;46.50
30534;DHT22;17318;52.390;9.754;2022-07-18T09:08:40;33.80;44.10
30534;DHT22;17318;52.390;9.754;2022-07-18T09:11:10;34.20;44.10
30534;DHT22;17318;52.390;9.754;2022-07-18T09:13:38;34.40;42.40
30534;DHT22;17318;52.390;9.754;2022-07-18T09:16:11;34.80;43.30
30534;DHT22;17318;52.390;9.754;2022-07-18T09:18:39;35.00;42.00
30534;DHT22;17318;52.390;9.754;2022-07-18T09:21:30;35.00;42.00
30534;DHT22;17318;52.390;9.754;2022-07-18T09:24:00;35.00;40.70
30534;DHT22;17318;52.390;9.754;2022-07-18T09:29:02;34.30;42.10
30534;DHT22;17318;52.390;9.754;2022-07-18T09:31:27;34.80;41.00
30534;DHT22;17318;52.390;9.754;2022-07-18T09:33:58;34.50;39.60
30534;DHT22;17318;52.390;9.754;2022-07-18T09:36:24;34.70;41.00
30534;DHT22;17318;52.390;9.754;2022-07-18T09:38:51;33.90;39.20
30534;DHT22;17318;52.390;9.754;2022-07-18T09:41:24;33.90;39.80
30534;DHT22;17318;52.390;9.754;2022-07-18T09:43:51;34.30;39.50
30534;DHT22;17318;52.390;9.754;2022-07-18T09:46:16;33.60;38.30
30534;DHT22;17318;52.390;9.754;2022-07-18T09:48:42;33.10;40.20
30534;DHT22;17318;52.390;9.754;2022-07-18T09:51:08;32.90;39.60
30534;DHT22;17318;52.390;9.754;2022-07-18T09:53:40;32.60;39.40
30534;DHT22;17318;52.390;9.754;2022-07-18T09:58:40;32.20;39.70
30534;DHT22;17318;52.390;9.754;2022-07-18T10:01:12;31.80;40.30
30534;DHT22;17318;52.390;9.754;2022-07-18T10:03:38;31.70;40.50
30534;DHT22;17318;52.390;9.754;2022-07-18T10:06:11;31.30;40.40
30534;DHT22;17318;52.390;9.754;2022-07-18T10:08:37;31.20;40.80
30534;DHT22;17318;52.390;9.754;2022-07-18T10:11:10;31.20;40.80
30534;DHT22;17318;52.390;9.754;2022-07-18T10:13:39;31.00;41.70
30534;DHT22;17318;52.390;9.754;2022-07-18T10:16:08;31.10;41.20
30534;DHT22;17318;52.390;9.754;2022-07-18T10:18:35;31.10;41.10
30534;DHT22;17318;52.390;9.754;2022-07-18T10:21:12;30.90;41.50
30534;DHT22;17318;52.390;9.754;2022-07-18T10:31:29;30.80;41.60
30534;DHT22;17318;52.390;9.754;2022-07-18T10:34:32;30.70;41.40
30534;DHT22;17318;52.390;9.754;2022-07-18T10:39:37;30.50;41.20
30534;DHT22;17318;52.390;9.754;2022-07-18T10:57:29;30.40;42.40
30534;DHT22;17318;52.390;9.754;2022-07-18T11:02:43;30.50;42.70
30534;DHT22;17318;52.390;9.754;2022-07-18T11:24:08;30.30;42.80
30534;DHT22;17318;52.390;9.754;2022-07-18T11:26:36;30.40;43.40
30534;DHT22;17318;52.390;9.754;2022-07-18T11:29:07;30.40;42.70
30534;DHT22;17318;52.390;9.754;2022-07-18T11:31:51;30.50;42.90
30534;DHT22;17318;52.390;9.754;2022-07-18T11:34:20;30.50;42.20
30534;DHT22;17318;52.390;9.754;2022-07-18T11:36:47;30.40;42.50
30534;DHT22;17318;52.390;9.754;2022-07-18T11:39:14;30.20;41.70
30534;DHT22;17318;52.390;9.754;2022-07-18T11:41:41;30.10;42.00
30534;DHT22;17318;52.390;9.754;2022-07-18T11:44:20;30.10;41.60
30534;DHT22;17318;52.390;9.754;2022-07-18T11:47:06;30.10;42.80
30534;DHT22;17318;52.390;9.754;2022-07-18T11:49:32;30.10;42.10
30534;DHT22;17318;52.390;9.754;2022-07-18T11:51:58;30.20;42.20
30534;DHT22;17318;52.390;9.754;2022-07-18T11:54:24;30.20;42.20
30534;DHT22;17318;52.390;9.754;2022-07-18T11:56:53;30.20;41.70
30534;DHT22;17318;52.390;9.754;2022-07-18T11:59:21;30.10;42.00
30534;DHT22;17318;52.390;9.754;2022-07-18T12:01:48;30.20;42.40
30534;DHT22;17318;52.390;9.754;2022-07-18T12:04:20;30.20;42.10
30534;DHT22;17318;52.390;9.754;2022-07-18T12:07:11;30.20;41.80
30534;DHT22;17318;52.390;9.754;2022-07-18T12:09:32;30.20;41.80
30534;DHT22;17318;52.390;9.754;2022-07-18T12:12:10;30.20;41.70
30534;DHT22;17318;52.390;9.754;2022-07-18T12:14:36;30.30;41.40
30534;DHT22;17318;52.390;9.754;2022-07-18T12:17:04;30.40;41.40
30534;DHT22;17318;52.390;9.754;2022-07-18T12:19:38;30.40;41.50
30534;DHT22;17318;52.390;9.754;2022-07-18T12:22:09;30.40;41.70
30534;DHT22;17318;52.390;9.754;2022-07-18T12:32:51;30.50;40.80
30534;DHT22;17318;52.390;9.754;2022-07-18T12:37:55;30.40;41.50
30534;DHT22;17318;52.390;9.754;2022-07-18T12:40:22;30.20;40.80
30534;DHT22;17318;52.390;9.754;2022-07-18T12:42:48;30.30;39.70
30534;DHT22;17318;52.390;9.754;2022-07-18T12:45:14;30.20;40.20
30534;DHT22;17318;52.390;9.754;2022-07-18T12:47:40;30.20;40.30
30534;DHT22;17318;52.390;9.754;2022-07-18T12:50:07;30.10;40.20
30534;DHT22;17318;52.390;9.754;2022-07-18T12:52:33;30.20;40.40
30534;DHT22;17318;52.390;9.754;2022-07-18T12:54:59;30.20;39.60
30534;DHT22;17318;52.390;9.754;2022-07-18T12:57:25;30.10;39.20
30534;DHT22;17318;52.390;9.754;2022-07-18T12:59:51;30.10;39.50
30534;DHT22;17318;52.390;9.754;2022-07-18T13:02:17;30.10;39.60
30534;DHT22;17318;52.390;9.754;2022-07-18T13:04:44;30.00;39.80
30534;DHT22;17318;52.390;9.754;2022-07-18T13:07:10;30.10;40.30
30534;DHT22;17318;52.390;9.754;2022-07-18T13:09:37;30.20;39.50
30534;DHT22;17318;52.390;9.754;2022-07-18T13:12:03;30.30;40.00
30534;DHT22;17318;52.390;9.754;2022-07-18T13:14:28;30.50;39.10
30534;DHT22;17318;52.390;9.754;2022-07-18T13:16:54;30.50;39.40
30534;DHT22;17318;52.390;9.754;2022-07-18T13:19:20;30.50;39.20
30534;DHT22;17318;52.390;9.754;2022-07-18T13:21:47;30.50;39.70
30534;DHT22;17318;52.390;9.754;2022-07-18T13:24:13;30.40;39.10
30534;DHT22;17318;52.390;9.754;2022-07-18T13:26:40;30.30;39.90
30534;DHT22;17318;52.390;9.754;2022-07-18T13:29:06;30.30;38.80
30534;DHT22;17318;52.390;9.754;2022-07-18T13:31:33;30.20;39.50
30534;DHT22;17318;52.390;9.754;2022-07-18T13:33:59;30.30;39.40
30534;DHT22;17318;52.390;9.754;2022-07-18T13:36:25;30.30;38.90
30534;DHT22;17318;52.390;9.754;2022-07-18T13:38:51;30.30;39.20
30534;DHT22;17318;52.390;9.754;2022-07-18T13:41:20;30.30;39.10
30534;DHT22;17318;52.390;9.754;2022-07-18T13:43:46;30.30;39.50
30534;DHT22;17318;52.390;9.754;2022-07-18T13:46:30;30.40;39.30
30534;DHT22;17318;52.390;9.754;2022-07-18T13:48:55;30.40;39.50
30534;DHT22;17318;52.390;9.754;2022-07-18T13:51:30;30.40;39.60
30534;DHT22;17318;52.390;9.754;2022-07-18T13:53:56;30.40;40.10
30534;DHT22;17318;52.390;9.754;2022-07-18T13:56:27;30.40;39.90
30534;DHT22;17318;52.390;9.754;2022-07-18T13:58:53;30.30;39.00
30534;DHT22;17318;52.390;9.754;2022-07-18T14:01:21;30.20;39.40
30534;DHT22;17318;52.390;9.754;2022-07-18T14:03:47;30.20;40.20
30534;DHT22;17318;52.390;9.754;2022-07-18T14:06:34;30.20;39.10
30534;DHT22;17318;52.390;9.754;2022-07-18T14:09:04;30.10;39.40
30534;DHT22;17318;52.390;9.754;2022-07-18T14:11:31;30.10;39.80
30534;DHT22;17318;52.390;9.754;2022-07-18T14:14:00;29.90;39.20
30534;DHT22;17318;52.390;9.754;2022-07-18T14:16:30;30.00;39.60
30534;DHT22;17318;52.390;9.754;2022-07-18T14:18:56;30.00;39.70
30534;DHT22;17318;52.390;9.754;2022-07-18T14:21:31;29.90;41.20
30534;DHT22;17318;52.390;9.754;2022-07-18T14:23:57;29.90;39.70
30534;DHT22;17318;52.390;9.754;2022-07-18T14:26:48;29.90;39.60
30534;DHT22;17318;52.390;9.754;2022-07-18T14:29:13;29.80;40.50
30534;DHT22;17318;52.390;9.754;2022-07-18T14:31:39;29.80;40.20
30534;DHT22;17318;52.390;9.754;2022-07-18T14:34:05;29.90;40.20
30534;DHT22;17318;52.390;9.754;2022-07-18T14:36:30;29.90;39.70
30534;DHT22;17318;52.390;9.754;2022-07-18T14:38:56;29.90;40.50
30534;DHT22;17318;52.390;9.754;2022-07-18T14:41:22;30.00;39.90
30534;DHT22;17318;52.390;9.754;2022-07-18T14:43:48;30.00;39.80
30534;DHT22;17318;52.390;9.754;2022-07-18T14:46:19;30.00;39.70
30534;DHT22;17318;52.390;9.754;2022-07-18T14:48:45;30.00;40.00
30534;DHT22;17318;52.390;9.754;2022-07-18T14:51:28;29.90;41.40
30534;DHT22;17318;52.390;9.754;2022-07-18T14:53:54;29.90;40.20
30534;DHT22;17318;52.390;9.754;2022-07-18T14:56:20;29.90;39.60
30534;DHT22;17318;52.390;9.754;2022-07-18T14:58:46;29.90;40.60
30534;DHT22;17318;52.390;9.754;2022-07-18T15:01:19;29.80;40.40
30534;DHT22;17318;52.390;9.754;2022-07-18T15:03:46;29.70;41.80
30534;DHT22;17318;52.390;9.754;2022-07-18T15:06:18;29.60;40.60
30534;DHT22;17318;52.390;9.754;2022-07-18T15:08:43;29.70;40.60
30534;DHT22;17318;52.390;9.754;2022-07-18T15:11:37;29.80;40.50
30534;DHT22;17318;52.390;9.754;2022-07-18T15:14:03;29.80;40.90
30534;DHT22;17318;52.390;9.754;2022-07-18T15:16:29;30.10;40.30
30534;DHT22;17318;52.390;9.754;2022-07-18T15:18:54;30.10;40.30
30534;DHT22;17318;52.390;9.754;2022-07-18T15:21:23;30.10;40.70
30534;DHT22;17318;52.390;9.754;2022-07-18T15:23:48;30.00;40.50
30534;DHT22;17318;52.390;9.754;2022-07-18T15:26:20;30.00;41.00
30534;DHT22;17318;52.390;9.754;2022-07-18T15:28:46;30.10;39.70
30534;DHT22;17318;52.390;9.754;2022-07-18T15:31:33;29.90;41.30
30534;DHT22;17318;52.390;9.754;2022-07-18T15:33:58;30.00;40.20
30534;DHT22;17318;52.390;9.754;2022-07-18T15:36:30;30.00;40.90
30534;DHT22;17318;52.390;9.754;2022-07-18T15:38:55;30.10;40.90
30534;DHT22;17318;52.390;9.754;2022-07-18T15:41:21;30.10;41.10
30534;DHT22;17318;52.390;9.754;2022-07-18T15:43:48;30.00;40.60
30534;DHT22;17318;52.390;9.754;2022-07-18T15:46:17;30.10;40.70
30534;DHT22;17318;52.390;9.754;2022-07-18T15:48:44;30.00;40.60
30534;DHT22;17318;52.390;9.754;2022-07-18T15:51:19;29.90;42.10
30534;DHT22;17318;52.390;9.754;2022-07-18T15:53:44;29.80;41.80
30534;DHT22;17318;52.390;9.754;2022-07-18T15:56:32;29.90;41.50
30534;DHT22;17318;52.390;9.754;2022-07-18T15:58:57;29.90;41.00
30534;DHT22;17318;52.390;9.754;2022-07-18T16:01:38;30.00;41.40
30534;DHT22;17318;52.390;9.754;2022-07-18T16:04:04;30.00;41.10
30534;DHT22;17318;52.390;9.754;2022-07-18T16:06:29;30.00;42.80
30534;DHT22;17318;52.390;9.754;2022-07-18T16:08:55;30.00;41.70
30534;DHT22;17318;52.390;9.754;2022-07-18T16:11:21;30.00;42.30
30534;DHT22;17318;52.390;9.754;2022-07-18T16:13:47;29.90;42.70
30534;DHT22;17318;52.390;9.754;2022-07-18T16:16:22;29.90;42.30
30534;DHT22;17318;52.390;9.754;2022-07-18T16:18:48;29.90;42.60
30534;DHT22;17318;52.390;9.754;2022-07-18T16:21:22;29.80;45.10
30534;DHT22;17318;52.390;9.754;2022-07-18T16:23:48;29.60;42.80
30534;DHT22;17318;52.390;9.754;2022-07-18T16:26:23;29.80;42.00
30534;DHT22;17318;52.390;9.754;2022-07-18T16:28:49;29.90;41.80
30534;DHT22;17318;52.390;9.754;2022-07-18T16:31:21;30.00;41.40
30534;DHT22;17318;52.390;9.754;2022-07-18T16:33:47;30.00;41.70
30534;DHT22;17318;52.390;9.754;2022-07-18T16:36:25;30.00;41.90
30534;DHT22;17318;52.390;9.754;2022-07-18T16:38:51;30.10;41.70